Terminal Aerodrome Forecast
Issued by NWS

Home | Current Version | Previous Version | Text Only | Print | Product List | Glossary On
Versions: 1 2 3 4 5 6 7 8 9 10 11 12 13 14 15 16 17 18 19 20 21 22 23 24 25 26
000
FTUS45 KREV 300500
TAFCXP
TAF
KCXP 300523Z 3006/3106 VRB04KT P6SM VCSH BKN140
     FM302200 25010KT P6SM VCTS BKN080CB BKN120
     FM310200 VRB03KT P6SM SCT100 BKN150=

USA.gov is the U.S. government's official web portal to all federal, state and local government web resources and services.